Pagrindinis puslapis
METAR-TAF:

METAR-TAF

Oro uostai :

Rijeka, Kroatija

platuma: 45-13N, ilguma: 014-35E, Aukštis: 85 m

Dabartinis oras

Ataskaita buvo paskelbta 17 minutes, ne 20:00 UTC
Vėjas 3 kt iš Pietų, svyruoja nuo Pietų/Pietryčių ir Vakarų
Temperatūra 4°C
Drėgmė 56%
Slėgis 1042 hPa
Matomumas 10 km arba daugiau
nėra debesų žemiau 1500 m ir nėra kamuolinių lietaus debesų

METAR: LDRI 202000Z 19003KT 150V270 CAVOK 04/M04 Q1042

Laikas: 21:17 (20:17 UTC)

Prognozė

Ataskaita buvo paskelbta 17 minutes, ne 20:00 UTC
Prognozė galioja nuo 20 metu 20 UTC su 21 metu 18 UTC
Vėjas 5 kt iš Rytų/Šiaurės Rytų
Matomumas 10 km arba daugiau
nėra debesų žemiau 1500 m ir nėra kamuolinių lietaus debesų
Tikimybė 30% :
Laikinai
nuo 20 metu 20 UTC su 21 metu 02 UTC
Vėjas 10 kt nuo kintamojo kryptimis

TAF: LDRI 202000Z 2020/2118 06005KT CAVOK TX10/2113Z TN02/2105Z PROB30 TEMPO 2020/2102 VRB10KT

Orai ataskaitas ir orų prognozės (METAR, TAF).

turimą stotys yra geltonos ir raudonos taškus žemėlapyje.

Perkelti pele per norėdami pamatyti stoties vardą.

Tada spustelėkite, norėdami matyti oro stebėjimo ir prognozės.

Norėdami pakeisti žemėlapį: spustelėkite ant žalios mygtukų su juodo kryžiaus žemyn,; žalią mygtuką su brūkšneliu, jei norite nutolinti; arba žalių rodyklių gretimoms žemėlapius.


METAR-TAF: